createdAt,value
2022-11-28T00:03:17.971Z,29.27
2022-11-28T00:08:47.567Z,33.75
2022-11-28T00:14:19.948Z,36.45
2022-11-28T00:19:48.749Z,37.22
2022-11-28T00:25:18.560Z,38.38
2022-11-28T00:30:49.433Z,36.92
2022-11-28T00:36:18.378Z,47.38
2022-11-28T00:41:47.353Z,37.47
2022-11-28T00:47:17.853Z,40.27
2022-11-28T00:52:47.307Z,45.78
2022-11-28T00:58:16.020Z,43.27
2022-11-28T01:03:47.535Z,54.72
2022-11-28T01:09:20.716Z,46.95
2022-11-28T01:14:50.171Z,44.72
2022-11-28T01:20:20.665Z,37.00
2022-11-28T01:25:49.802Z,42.40
2022-11-28T01:31:22.187Z,39.03
2022-11-28T01:36:52.170Z,44.85
2022-11-28T01:42:21.544Z,39.72
2022-11-28T01:47:53.006Z,48.75
2022-11-28T01:53:24.001Z,46.05
2022-11-28T01:58:59.271Z,41.58
2022-11-28T02:04:29.631Z,53.38
2022-11-28T02:10:01.849Z,48.22
2022-11-28T02:15:52.548Z,47.42
2022-11-28T02:21:39.761Z,40.30
2022-11-28T02:27:38.371Z,38.33
2022-11-28T02:33:15.712Z,39.70
2022-11-28T02:38:55.953Z,39.30
2022-11-28T02:44:33.270Z,42.75
2022-11-28T02:50:08.710Z,48.67
2022-11-28T02:55:41.167Z,43.55
2022-11-28T03:01:18.482Z,40.88
2022-11-28T03:07:00.137Z,48.95
2022-11-28T03:12:39.066Z,50.95
2022-11-28T03:18:13.446Z,50.23
2022-11-28T03:23:49.615Z,45.72
2022-11-28T03:29:24.582Z,53.78
2022-11-28T03:34:59.299Z,40.03
2022-11-28T03:40:37.718Z,40.58
2022-11-28T03:46:12.697Z,51.80
2022-11-28T03:51:47.953Z,37.35
2022-11-28T03:57:25.791Z,38.03
2022-11-28T04:03:03.859Z,44.38
2022-11-28T04:08:36.703Z,46.03
2022-11-28T04:14:13.407Z,42.88
2022-11-28T04:19:48.553Z,40.17
2022-11-28T04:25:21.256Z,35.85
2022-11-28T04:30:58.890Z,42.13
2022-11-28T04:36:30.158Z,30.08
2022-11-28T04:42:03.785Z,25.73
2022-11-28T04:47:34.574Z,19.38
2022-11-28T04:53:11.316Z,9.80
2022-11-28T04:58:43.062Z,10.55
2022-11-28T05:04:14.768Z,12.70
2022-11-28T05:09:43.809Z,11.65
2022-11-28T05:15:13.433Z,13.88
2022-11-28T05:20:43.311Z,11.63
2022-11-28T05:26:13.825Z,17.88
2022-11-28T05:31:42.807Z,11.60
2022-11-28T05:37:13.620Z,17.85
2022-11-28T05:42:43.039Z,14.80
2022-11-28T05:48:12.496Z,11.93
2022-11-28T05:53:42.561Z,10.70
2022-11-28T05:59:13.741Z,12.95
2022-11-28T06:04:42.965Z,8.38
2022-11-28T06:10:13.443Z,13.23
2022-11-28T06:15:45.513Z,12.82
2022-11-28T06:21:15.645Z,8.88
2022-11-28T06:26:46.627Z,9.45
2022-11-28T06:32:20.556Z,10.82
2022-11-28T06:37:50.814Z,10.27
2022-11-28T06:43:21.573Z,21.60
2022-11-28T06:48:51.990Z,8.85
2022-11-28T06:54:21.266Z,11.68
2022-11-28T06:59:51.600Z,14.98
2022-11-28T07:10:52.096Z,17.45
2022-11-28T07:16:24.391Z,18.70
2022-11-28T07:21:53.148Z,15.55
2022-11-28T07:27:22.435Z,19.25
2022-11-28T07:32:55.357Z,21.45
2022-11-28T07:38:24.271Z,17.98
2022-11-28T07:43:57.459Z,25.13
2022-11-28T07:49:27.251Z,22.25
2022-11-28T07:54:56.213Z,21.70
2022-11-28T08:00:25.400Z,29.42
2022-11-28T08:06:02.971Z,25.80
2022-11-28T08:11:32.783Z,26.67
2022-11-28T08:17:02.301Z,40.35
2022-11-28T08:22:32.436Z,53.25
2022-11-28T08:27:58.269Z,49.33
2022-11-28T08:33:26.886Z,46.40
2022-11-28T08:39:16.738Z,40.70
2022-11-28T08:44:46.161Z,38.15
2022-11-28T08:50:10.177Z,44.60
2022-11-28T08:55:39.156Z,44.17
2022-11-28T09:01:17.022Z,53.97
2022-11-28T09:06:41.441Z,39.78
2022-11-28T09:12:09.149Z,38.05
2022-11-28T09:17:34.664Z,27.33
2022-11-28T09:22:58.297Z,21.23
2022-11-28T09:28:23.988Z,24.42
2022-11-28T09:33:53.442Z,18.67
2022-11-28T09:39:22.145Z,21.90
2022-11-28T09:44:52.771Z,18.30
2022-11-28T09:50:22.610Z,13.48
2022-11-28T09:55:53.709Z,16.75
2022-11-28T10:01:33.156Z,16.02
2022-11-28T10:07:07.941Z,12.70
2022-11-28T10:12:49.029Z,13.27
2022-11-28T10:18:31.024Z,16.17
2022-11-28T10:24:04.768Z,25.42
2022-11-28T10:29:34.871Z,25.98
2022-11-28T10:35:05.488Z,23.83
2022-11-28T10:40:40.378Z,28.13
2022-11-28T10:46:20.409Z,28.77
2022-11-28T10:51:55.132Z,33.42
2022-11-28T10:57:28.195Z,48.90
2022-11-28T11:03:02.426Z,40.28
2022-11-28T11:08:36.544Z,40.03
2022-11-28T11:14:03.483Z,40.75
2022-11-28T11:19:30.967Z,45.15
2022-11-28T11:25:16.302Z,44.28
2022-11-28T11:30:45.155Z,37.97
2022-11-28T11:36:25.738Z,50.95
2022-11-28T11:41:53.721Z,40.83
2022-11-28T11:47:18.106Z,45.90
2022-11-28T11:52:42.104Z,34.65
2022-11-28T11:58:12.600Z,37.10
2022-11-28T12:03:42.477Z,32.80
2022-11-28T12:16:05.933Z,44.83
2022-11-28T12:21:39.658Z,42.95
2022-11-28T12:27:14.211Z,39.65
2022-11-28T12:32:58.242Z,56.10
2022-11-28T12:38:36.493Z,41.15
2022-11-28T12:44:08.858Z,40.17
2022-11-28T12:49:42.601Z,44.25
2022-11-28T12:55:21.770Z,39.58
2022-11-28T13:01:00.568Z,46.72
2022-11-28T13:06:42.458Z,49.92
2022-11-28T13:12:24.229Z,51.08
2022-11-28T13:17:59.056Z,55.10
2022-11-28T13:23:37.131Z,52.70
2022-11-28T13:29:07.393Z,59.80
2022-11-28T13:34:37.927Z,45.80
2022-11-28T13:40:18.085Z,51.60
2022-11-28T13:45:44.502Z,48.83
2022-11-28T13:51:20.909Z,45.43
2022-11-28T13:57:13.988Z,42.33
2022-11-28T14:02:45.975Z,37.47
2022-11-28T14:08:30.561Z,51.58
2022-11-28T14:14:30.502Z,44.88
2022-11-28T14:20:14.093Z,44.03
2022-11-28T14:25:46.125Z,39.15
2022-11-28T14:31:33.209Z,35.85
2022-11-28T14:37:56.144Z,39.20
2022-11-28T14:43:27.494Z,37.05
2022-11-28T14:49:20.365Z,39.83
2022-11-28T14:54:53.250Z,35.65
2022-11-28T15:00:26.188Z,35.05
2022-11-28T15:06:00.507Z,40.13
2022-11-28T15:12:00.509Z,41.15
2022-11-28T15:17:33.516Z,50.17
2022-11-28T15:23:02.376Z,39.40
2022-11-28T15:28:34.078Z,41.07
2022-11-28T15:34:10.093Z,39.25
2022-11-28T15:39:42.011Z,33.10
2022-11-28T15:45:19.754Z,31.88
2022-11-28T15:50:52.333Z,28.88
2022-11-28T15:56:20.285Z,37.63
2022-11-28T16:01:50.304Z,30.67
2022-11-28T16:07:17.611Z,32.42
2022-11-28T16:12:46.625Z,29.98
2022-11-28T16:18:15.322Z,21.48
2022-11-28T16:23:40.315Z,27.97
2022-11-28T16:29:14.701Z,23.33
2022-11-28T16:34:48.008Z,23.75
2022-11-28T16:40:22.930Z,19.27
2022-11-28T16:46:00.346Z,18.98
2022-11-28T16:51:32.734Z,20.95
2022-11-28T16:57:14.739Z,22.05
2022-11-28T17:02:43.972Z,28.58
2022-11-28T17:08:13.328Z,19.63
2022-11-28T17:13:38.109Z,16.95
2022-11-28T17:19:04.221Z,22.83
2022-11-28T17:24:35.752Z,18.23
2022-11-28T17:30:08.381Z,14.77
2022-11-28T17:35:37.225Z,15.55
2022-11-28T17:41:01.779Z,16.87
2022-11-28T17:46:26.290Z,15.20
2022-11-28T17:51:57.763Z,15.73
2022-11-28T17:57:22.413Z,17.73
2022-11-28T18:02:52.358Z,19.27
2022-11-28T18:08:22.546Z,16.70
2022-11-28T18:19:21.377Z,16.15
2022-11-28T18:24:49.462Z,23.52
2022-11-28T18:35:47.164Z,15.20
2022-11-28T18:41:18.484Z,18.35
2022-11-28T18:46:48.351Z,17.90
2022-11-28T18:52:18.415Z,18.17
2022-11-28T18:57:43.118Z,20.55
2022-11-28T19:08:44.146Z,24.37
2022-11-28T19:14:16.720Z,23.13
2022-11-28T19:19:46.551Z,17.52
2022-11-28T19:25:16.883Z,16.40
2022-11-28T19:30:46.400Z,14.65
2022-11-28T19:36:16.368Z,11.00
2022-11-28T19:41:47.458Z,15.95
2022-11-28T19:47:11.328Z,17.35
2022-11-28T19:52:40.658Z,21.27
2022-11-28T19:58:11.633Z,13.88
2022-11-28T20:03:35.991Z,11.07
2022-11-28T20:09:07.760Z,14.63
2022-11-28T20:14:40.569Z,14.52
2022-11-28T20:20:10.606Z,14.30
2022-11-28T20:25:36.329Z,16.05
2022-11-28T20:31:07.678Z,16.30
2022-11-28T20:36:36.478Z,15.07
2022-11-28T20:42:02.621Z,15.27
2022-11-28T20:47:35.038Z,11.45
2022-11-28T20:53:04.262Z,10.90
2022-11-28T20:58:28.653Z,14.25
2022-11-28T21:03:58.975Z,11.70
2022-11-28T21:09:22.217Z,16.20
2022-11-28T21:14:46.060Z,12.02
2022-11-28T21:20:16.706Z,12.98
2022-11-28T21:25:45.425Z,12.70
2022-11-28T21:31:16.913Z,11.73
2022-11-28T21:42:08.702Z,14.48
2022-11-28T21:47:34.098Z,12.88
2022-11-28T21:52:57.616Z,11.82
2022-11-28T21:58:27.566Z,15.55
2022-11-28T22:03:50.556Z,13.68
2022-11-28T22:09:20.624Z,13.32
2022-11-28T22:14:49.701Z,14.27
2022-11-28T22:20:19.671Z,14.65
2022-11-28T22:25:54.164Z,16.20
2022-11-28T22:31:23.627Z,17.27
2022-11-28T22:36:52.966Z,13.88
2022-11-28T22:42:23.623Z,11.73
2022-11-28T22:47:55.002Z,15.00
2022-11-28T22:53:22.834Z,23.00
2022-11-28T22:58:53.582Z,12.15
2022-11-28T23:04:22.451Z,11.23
2022-11-28T23:09:45.953Z,17.55
2022-11-28T23:15:16.909Z,17.23
2022-11-28T23:20:46.409Z,12.40
2022-11-28T23:26:17.786Z,11.97
2022-11-28T23:31:43.016Z,17.70
2022-11-28T23:37:13.356Z,10.23
2022-11-28T23:42:43.021Z,15.70
2022-11-28T23:48:08.239Z,19.00
2022-11-28T23:53:37.807Z,13.18
2022-11-28T23:59:03.737Z,12.63
